KRXE

Details ICAO KRXE
Name REXBURG MADISON CO
Region United States
Timezone America/Boise (UTC-7.0)
Plans Departing 0
Arriving 3
Stats Elevation 4,858 ft / 1,481 m (AMSL)
Location 43.833919° -111.805109°
Runways 1
Magnetic Variation 11.872° E
Sunrise 2017-12-18 14:58:02 UTC / 2017-12-18 07:58:02 Local
Sunset 2017-12-18 23:52:38 UTC / 2017-12-18 16:52:38 Local
Advertisement - Login to hide

Runways

ID Width Length Bearing (true) Bearing (mag) Surface Threshold Offset Overrun Length
17 75 ft / 23 m 4,207 ft / 1,282 m 186.44° 174.57° Asphalt 240 ft / 73 m 0 ft / 0 m
35 75 ft / 23 m 4,207 ft / 1,282 m 6.44° 354.57° Asphalt 0 ft / 0 m 0 ft / 0 m

Map

Weather


0- 5 10 15 20 25 30 35+ Temperature / ° C

Clouds and Precipitation
Forecast for 2017-12-18 18:00 UTC. Updated 2 hours ago

Ground ~20,000 ft ~40,000 ft Winds

METAR

KRXE 181453Z AUTO 07003KT 10SM OVC032 M05/M07 A3019 RMK AO2 SLP266 T10501072 50001

TAF

Not found

Frequencies

Recorded 135.07 MHz ASOS
Unicom 122.80 MHz CTAF/UNICOM
Warning: Do not use this data for real-world aviation or navigation. No guarantee of current accuracy is given.